createdAt,value
2023-02-22T00:01:35.456Z,7.60
2023-02-22T00:04:05.651Z,11.00
2023-02-22T00:06:34.385Z,10.07
2023-02-22T00:09:03.424Z,9.10
2023-02-22T00:11:35.609Z,9.50
2023-02-22T00:14:03.804Z,9.23
2023-02-22T00:16:32.612Z,7.17
2023-02-22T00:19:01.633Z,8.17
2023-02-22T00:21:31.302Z,10.53
2023-02-22T00:24:00.431Z,9.40
2023-02-22T00:26:28.667Z,8.03
2023-02-22T00:29:00.604Z,11.07
2023-02-22T00:31:29.710Z,10.80
2023-02-22T00:33:57.911Z,9.07
2023-02-22T00:36:26.648Z,12.17
2023-02-22T00:38:57.265Z,7.40
2023-02-22T00:41:26.660Z,10.23
2023-02-22T00:43:54.819Z,10.63
2023-02-22T00:46:24.837Z,8.80
2023-02-22T00:48:55.923Z,11.10
2023-02-22T00:51:30.677Z,11.97
2023-02-22T00:53:59.462Z,11.47
2023-02-22T00:56:28.637Z,11.10
2023-02-22T00:58:57.457Z,10.30
2023-02-22T01:01:27.652Z,9.83
2023-02-22T01:03:56.515Z,12.40
2023-02-22T01:06:25.582Z,10.37
2023-02-22T01:08:54.428Z,11.93
2023-02-22T01:11:23.354Z,11.93
2023-02-22T01:13:54.154Z,10.40
2023-02-22T01:16:24.719Z,9.30
2023-02-22T01:18:54.397Z,11.27
2023-02-22T01:21:23.457Z,10.73
2023-02-22T01:23:52.454Z,12.90
2023-02-22T01:26:21.339Z,7.77
2023-02-22T01:28:49.471Z,8.83
2023-02-22T01:31:20.795Z,8.87
2023-02-22T01:33:50.933Z,9.60
2023-02-22T01:36:23.717Z,11.13
2023-02-22T01:38:51.914Z,12.03
2023-02-22T01:41:22.592Z,9.50
2023-02-22T01:43:51.490Z,11.30
2023-02-22T01:46:24.674Z,8.83
2023-02-22T01:48:59.445Z,10.27
2023-02-22T01:51:35.368Z,10.33
2023-02-22T01:54:07.368Z,10.67
2023-02-22T01:56:43.384Z,9.47
2023-02-22T01:59:14.612Z,8.80
2023-02-22T02:01:47.348Z,7.73
2023-02-22T02:04:25.508Z,10.60
2023-02-22T02:07:01.699Z,8.50
2023-02-22T02:09:34.938Z,7.13
2023-02-22T02:12:07.453Z,9.07
2023-02-22T02:14:40.380Z,8.70
2023-02-22T02:17:15.328Z,15.53
2023-02-22T02:19:53.688Z,7.07
2023-02-22T02:22:39.471Z,8.23
2023-02-22T02:25:37.851Z,10.30
2023-02-22T02:28:51.585Z,10.17
2023-02-22T02:31:45.686Z,5.33
2023-02-22T02:34:21.963Z,6.73
2023-02-22T02:37:04.772Z,8.53
2023-02-22T02:39:40.396Z,8.83
2023-02-22T02:42:15.901Z,6.47
2023-02-22T02:44:50.673Z,7.87
2023-02-22T02:47:23.174Z,8.33
2023-02-22T02:49:58.690Z,8.50
2023-02-22T02:52:30.488Z,9.67
2023-02-22T02:54:59.651Z,10.00
2023-02-22T02:57:27.927Z,10.23
2023-02-22T03:00:01.902Z,7.33
2023-02-22T03:02:43.500Z,8.27
2023-02-22T03:05:39.934Z,7.90
2023-02-22T03:08:13.790Z,9.70
2023-02-22T03:10:54.706Z,9.20
2023-02-22T03:13:33.470Z,9.97
2023-02-22T03:16:11.715Z,7.67
2023-02-22T03:18:52.572Z,6.90
2023-02-22T03:21:29.647Z,9.23
2023-02-22T03:24:05.490Z,6.03
2023-02-22T03:26:37.955Z,7.90
2023-02-22T03:29:09.505Z,7.83
2023-02-22T03:31:42.181Z,8.57
2023-02-22T03:34:17.616Z,6.47
2023-02-22T03:36:56.001Z,5.93
2023-02-22T03:39:32.414Z,6.70
2023-02-22T03:42:07.965Z,12.90
2023-02-22T03:44:40.538Z,9.70
2023-02-22T03:47:15.682Z,7.73
2023-02-22T03:49:50.417Z,7.37
2023-02-22T03:52:23.472Z,6.70
2023-02-22T03:54:53.748Z,5.77
2023-02-22T03:57:27.510Z,6.63
2023-02-22T04:00:07.638Z,4.20
2023-02-22T04:02:41.785Z,5.97
2023-02-22T04:05:17.333Z,7.63
2023-02-22T04:07:47.550Z,4.10
2023-02-22T04:10:18.094Z,3.30
2023-02-22T04:12:46.593Z,1.70
2023-02-22T04:15:18.063Z,1.60
2023-02-22T04:17:52.339Z,1.63
2023-02-22T04:20:30.159Z,1.90
2023-02-22T04:23:07.673Z,1.70
2023-02-22T04:25:40.802Z,1.63
2023-02-22T04:28:13.559Z,2.50
2023-02-22T04:30:56.787Z,1.60
2023-02-22T04:33:26.364Z,1.83
2023-02-22T04:35:57.762Z,4.73
2023-02-22T04:38:28.512Z,1.90
2023-02-22T04:40:59.687Z,3.00
2023-02-22T04:43:30.539Z,3.27
2023-02-22T04:46:07.053Z,6.27
2023-02-22T04:48:38.550Z,7.43
2023-02-22T04:51:08.536Z,3.10
2023-02-22T04:53:42.520Z,1.83
2023-02-22T04:56:11.056Z,1.80
2023-02-22T04:58:39.489Z,2.40
2023-02-22T05:01:08.283Z,2.23
2023-02-22T05:03:39.162Z,1.90
2023-02-22T05:06:08.756Z,2.07
2023-02-22T05:08:37.013Z,1.70
2023-02-22T05:11:09.780Z,3.27
2023-02-22T05:13:38.359Z,2.40
2023-02-22T05:16:08.589Z,2.10
2023-02-22T05:18:36.781Z,2.30
2023-02-22T05:21:05.230Z,2.30
2023-02-22T05:23:33.848Z,2.77
2023-02-22T05:26:02.352Z,4.33
2023-02-22T05:28:32.349Z,4.30
2023-02-22T05:31:02.551Z,2.80
2023-02-22T05:33:31.337Z,3.90
2023-02-22T05:35:59.556Z,3.33
2023-02-22T05:38:28.550Z,5.07
2023-02-22T05:40:56.965Z,3.10
2023-02-22T05:43:25.348Z,3.73
2023-02-22T05:45:55.748Z,3.27
2023-02-22T05:48:23.930Z,2.60
2023-02-22T05:50:52.608Z,3.30
2023-02-22T05:53:20.857Z,7.17
2023-02-22T05:55:53.627Z,3.27
2023-02-22T05:58:21.807Z,3.50
2023-02-22T06:00:54.657Z,5.67
2023-02-22T06:03:23.543Z,5.00
2023-02-22T06:05:52.746Z,4.30
2023-02-22T06:08:20.893Z,4.90
2023-02-22T06:10:49.158Z,3.00
2023-02-22T06:13:17.349Z,3.80
2023-02-22T06:15:46.773Z,5.43
2023-02-22T06:18:16.572Z,3.63
2023-02-22T06:20:49.574Z,4.27
2023-02-22T06:23:18.593Z,3.87
2023-02-22T06:25:48.735Z,4.63
2023-02-22T06:28:17.457Z,10.03
2023-02-22T06:30:46.788Z,8.67
2023-02-22T06:33:17.554Z,9.50
2023-02-22T06:35:46.862Z,10.77
2023-02-22T06:38:23.855Z,8.73
2023-02-22T06:40:52.532Z,9.43
2023-02-22T06:43:21.419Z,5.23
2023-02-22T06:45:50.851Z,10.33
2023-02-22T06:48:20.921Z,4.83
2023-02-22T06:50:53.374Z,4.60
2023-02-22T06:53:21.547Z,5.00
2023-02-22T06:55:52.684Z,4.43
2023-02-22T06:58:20.893Z,5.37
2023-02-22T07:00:49.832Z,4.70
2023-02-22T07:03:20.189Z,6.20
2023-02-22T07:05:50.756Z,3.37
2023-02-22T07:08:22.482Z,3.17
2023-02-22T07:10:50.975Z,3.10
2023-02-22T07:13:19.533Z,3.17
2023-02-22T07:15:49.298Z,5.40
2023-02-22T07:18:18.579Z,5.03
2023-02-22T07:20:48.715Z,3.80
2023-02-22T07:23:19.271Z,3.10
2023-02-22T07:25:48.584Z,3.60
2023-02-22T07:28:17.321Z,4.03
2023-02-22T07:30:45.829Z,4.57
2023-02-22T07:33:14.274Z,4.10
2023-02-22T07:35:47.184Z,2.87
2023-02-22T07:38:16.703Z,2.37
2023-02-22T07:40:47.970Z,3.07
2023-02-22T07:43:18.586Z,3.57
2023-02-22T07:45:48.799Z,2.63
2023-02-22T07:48:23.593Z,18.57
2023-02-22T07:50:52.790Z,13.03
2023-02-22T07:53:23.630Z,3.33
2023-02-22T07:55:53.788Z,4.13
2023-02-22T07:58:24.676Z,2.30
2023-02-22T08:00:53.308Z,2.30
2023-02-22T08:03:29.467Z,3.60
2023-02-22T08:06:00.568Z,2.60
2023-02-22T08:08:28.780Z,2.40
2023-02-22T08:10:58.712Z,2.60
2023-02-22T08:13:27.118Z,2.33
2023-02-22T08:15:58.338Z,2.57
2023-02-22T08:18:28.025Z,4.40
2023-02-22T08:20:56.472Z,2.60
2023-02-22T08:23:27.106Z,3.13
2023-02-22T08:25:57.833Z,3.10
2023-02-22T08:28:26.491Z,3.30
2023-02-22T08:30:55.820Z,2.70
2023-02-22T08:33:24.748Z,2.30
2023-02-22T08:35:53.979Z,4.97
2023-02-22T08:38:24.602Z,6.43
2023-02-22T08:40:54.065Z,3.03
2023-02-22T08:43:24.179Z,2.43
2023-02-22T08:45:53.561Z,2.00
2023-02-22T08:48:23.594Z,2.03
2023-02-22T08:50:52.759Z,1.93
2023-02-22T08:53:20.942Z,4.50
2023-02-22T08:55:49.824Z,1.83
2023-02-22T08:58:18.111Z,1.90
2023-02-22T09:00:49.783Z,2.63
2023-02-22T09:03:18.025Z,1.90
2023-02-22T09:05:50.697Z,1.70
2023-02-22T09:08:19.128Z,3.53
2023-02-22T09:10:49.232Z,2.37
2023-02-22T09:13:17.645Z,2.40
2023-02-22T09:15:46.081Z,4.40
2023-02-22T09:18:18.576Z,6.33
2023-02-22T09:20:47.800Z,5.33
2023-02-22T09:23:16.608Z,5.73
2023-02-22T09:25:44.868Z,5.17
2023-02-22T09:28:13.045Z,5.90
2023-02-22T09:30:41.838Z,2.40
2023-02-22T09:33:16.318Z,2.43
2023-02-22T09:35:46.804Z,2.47
2023-02-22T09:38:17.643Z,2.27
2023-02-22T09:40:53.132Z,2.43
2023-02-22T09:43:35.728Z,2.80
2023-02-22T09:46:19.354Z,2.50
2023-02-22T09:48:59.430Z,4.97
2023-02-22T09:51:38.824Z,8.60
2023-02-22T09:54:17.607Z,5.07
2023-02-22T09:56:49.736Z,4.80
2023-02-22T09:59:24.153Z,3.83
2023-02-22T10:02:00.795Z,4.47
2023-02-22T10:04:41.479Z,4.43
2023-02-22T10:07:19.445Z,9.70
2023-02-22T10:09:50.832Z,13.07
2023-02-22T10:12:29.590Z,7.10
2023-02-22T10:15:30.293Z,7.60
2023-02-22T10:18:11.813Z,6.67
2023-02-22T10:20:51.444Z,9.53
2023-02-22T10:23:28.595Z,7.97
2023-02-22T10:26:16.207Z,8.07
2023-02-22T10:28:55.645Z,7.43
2023-02-22T10:31:30.265Z,6.30
2023-02-22T10:34:03.058Z,6.17
2023-02-22T10:36:37.207Z,6.80
2023-02-22T10:39:20.689Z,7.97
2023-02-22T10:41:55.893Z,9.60
2023-02-22T10:44:24.187Z,5.93
2023-02-22T10:46:54.422Z,6.23
2023-02-22T10:49:24.842Z,8.00
2023-02-22T10:52:02.368Z,5.87
2023-02-22T10:54:33.596Z,5.23
2023-02-22T10:57:04.163Z,4.67
2023-02-22T10:59:37.745Z,21.60
2023-02-22T11:02:19.538Z,5.97
2023-02-22T11:04:50.909Z,5.60
2023-02-22T11:07:27.250Z,5.57
2023-02-22T11:09:59.373Z,8.73
2023-02-22T11:12:34.154Z,6.00
2023-02-22T11:15:32.024Z,8.07
2023-02-22T11:18:01.948Z,11.30
2023-02-22T11:20:36.772Z,7.77
2023-02-22T11:23:08.253Z,6.40
2023-02-22T11:25:38.880Z,6.33
2023-02-22T11:28:14.981Z,18.80
2023-02-22T11:30:45.908Z,13.57
2023-02-22T11:33:23.966Z,6.53
2023-02-22T11:35:55.018Z,9.60
2023-02-22T11:38:27.661Z,7.07
2023-02-22T11:41:16.364Z,6.97
2023-02-22T11:43:51.287Z,7.97
2023-02-22T11:46:22.863Z,8.60
2023-02-22T11:49:00.680Z,5.87
2023-02-22T11:51:42.997Z,7.20
2023-02-22T11:54:39.908Z,5.57
2023-02-22T11:57:23.164Z,4.70
2023-02-22T12:00:07.246Z,5.57
2023-02-22T12:02:57.440Z,3.63
2023-02-22T12:05:46.677Z,3.77
2023-02-22T12:08:31.037Z,4.13
2023-02-22T12:11:06.440Z,4.43
2023-02-22T12:13:46.687Z,4.43
2023-02-22T12:16:25.201Z,7.03
2023-02-22T12:19:09.040Z,6.27
2023-02-22T12:21:42.717Z,5.37
2023-02-22T12:24:16.448Z,13.60
2023-02-22T12:26:50.694Z,9.07
2023-02-22T12:29:33.090Z,3.83
2023-02-22T12:32:06.038Z,5.27
2023-02-22T12:34:41.361Z,6.03
2023-02-22T12:37:19.507Z,4.53
2023-02-22T12:39:57.414Z,6.33
2023-02-22T12:42:35.693Z,6.33
2023-02-22T12:45:11.393Z,5.17
2023-02-22T12:47:47.737Z,3.80
2023-02-22T12:50:21.681Z,3.87
2023-02-22T12:52:57.782Z,3.50
2023-02-22T12:55:36.708Z,4.77
2023-02-22T12:58:20.282Z,4.77
2023-02-22T13:00:52.986Z,4.00
2023-02-22T13:03:32.689Z,4.63
2023-02-22T13:06:19.531Z,6.30
2023-02-22T13:09:05.690Z,6.53
2023-02-22T13:11:43.105Z,4.00
2023-02-22T13:14:31.825Z,5.07
2023-02-22T13:17:05.059Z,4.07
2023-02-22T13:19:44.738Z,4.17
2023-02-22T13:22:23.882Z,5.27
2023-02-22T13:25:03.712Z,5.27
2023-02-22T13:27:38.473Z,5.20
2023-02-22T13:30:19.732Z,5.13
2023-02-22T13:33:14.566Z,7.07
2023-02-22T13:36:07.522Z,4.70
2023-02-22T13:39:18.706Z,3.10
2023-02-22T13:41:56.891Z,3.30
2023-02-22T13:44:53.721Z,5.90
2023-02-22T13:48:03.755Z,3.30
2023-02-22T13:50:58.694Z,3.10
2023-02-22T13:53:32.962Z,5.63
2023-02-22T13:56:06.357Z,3.73
2023-02-22T13:58:47.399Z,3.83
2023-02-22T14:01:39.751Z,3.57
2023-02-22T14:04:33.639Z,4.17
2023-02-22T14:07:06.286Z,2.90
2023-02-22T14:09:48.714Z,3.60
2023-02-22T14:12:50.179Z,7.83
2023-02-22T14:15:29.592Z,9.10
2023-02-22T14:18:02.460Z,8.03
2023-02-22T14:20:37.236Z,8.17
2023-02-22T14:23:40.331Z,5.83
2023-02-22T14:26:15.762Z,4.20
2023-02-22T14:28:53.437Z,5.80
2023-02-22T14:31:37.615Z,9.77
2023-02-22T14:34:11.315Z,8.23
2023-02-22T14:36:51.757Z,5.90
2023-02-22T14:39:25.566Z,5.53
2023-02-22T14:42:01.769Z,5.87
2023-02-22T14:44:34.182Z,3.90
2023-02-22T14:47:06.732Z,7.80
2023-02-22T14:49:41.580Z,7.27
2023-02-22T14:52:21.727Z,3.17
2023-02-22T14:55:07.007Z,3.37
2023-02-22T14:57:45.955Z,4.00
2023-02-22T15:00:21.729Z,4.00
2023-02-22T15:02:52.372Z,3.30
2023-02-22T15:05:22.746Z,6.57
2023-02-22T15:07:55.669Z,14.93
2023-02-22T15:10:29.187Z,11.63
2023-02-22T15:13:10.762Z,6.23
2023-02-22T15:15:44.752Z,4.00
2023-02-22T15:18:30.104Z,4.37
2023-02-22T15:21:06.826Z,3.40
2023-02-22T15:23:44.856Z,5.30
2023-02-22T15:26:24.204Z,4.40
2023-02-22T15:28:56.370Z,4.43
2023-02-22T15:31:31.896Z,4.63
2023-02-22T15:34:22.279Z,4.43
2023-02-22T15:36:54.494Z,5.30
2023-02-22T15:39:30.133Z,6.80
2023-02-22T15:42:10.101Z,5.23
2023-02-22T15:44:40.626Z,5.77
2023-02-22T15:47:22.267Z,4.90
2023-02-22T15:50:21.766Z,4.07
2023-02-22T15:52:53.345Z,5.53
2023-02-22T15:55:25.918Z,4.33
2023-02-22T15:57:54.313Z,5.53
2023-02-22T16:00:25.786Z,4.77
2023-02-22T16:02:58.674Z,6.70
2023-02-22T16:05:38.763Z,5.43
2023-02-22T16:08:17.772Z,7.90
2023-02-22T16:10:54.338Z,6.33
2023-02-22T16:13:31.949Z,6.20
2023-02-22T16:16:02.886Z,6.53
2023-02-22T16:18:33.931Z,8.30
2023-02-22T16:21:07.825Z,7.53
2023-02-22T16:23:46.255Z,6.40
2023-02-22T16:26:26.009Z,9.40
2023-02-22T16:28:56.774Z,7.73
2023-02-22T16:31:28.888Z,7.27
2023-02-22T16:33:58.781Z,7.00
2023-02-22T16:36:42.071Z,8.27
2023-02-22T16:39:15.284Z,8.27
2023-02-22T16:41:45.782Z,12.50
2023-02-22T16:44:17.483Z,8.20
2023-02-22T16:46:45.895Z,6.80
2023-02-22T16:49:15.766Z,7.23
2023-02-22T16:51:53.444Z,7.67
2023-02-22T16:54:28.649Z,7.73
2023-02-22T16:57:02.010Z,9.30
2023-02-22T16:59:36.564Z,15.47
2023-02-22T17:02:07.710Z,8.50
2023-02-22T17:04:36.910Z,9.40
2023-02-22T17:07:05.509Z,7.37
2023-02-22T17:09:33.929Z,8.27
2023-02-22T17:12:04.798Z,8.70
2023-02-22T17:14:36.308Z,9.70
2023-02-22T17:17:05.815Z,11.80
2023-02-22T17:19:34.483Z,8.03
2023-02-22T17:22:10.149Z,10.17
2023-02-22T17:24:39.360Z,11.77
2023-02-22T17:27:09.803Z,11.60
2023-02-22T17:29:40.347Z,10.27
2023-02-22T17:32:09.119Z,8.27
2023-02-22T17:34:40.758Z,7.47
2023-02-22T17:37:08.927Z,8.43
2023-02-22T17:39:37.069Z,7.50
2023-02-22T17:42:08.279Z,9.53
2023-02-22T17:44:38.073Z,8.90
2023-02-22T17:47:08.513Z,10.33
2023-02-22T17:49:36.703Z,8.43
2023-02-22T17:52:06.428Z,10.53
2023-02-22T17:54:36.042Z,11.57
2023-02-22T17:57:04.397Z,12.70
2023-02-22T17:59:34.381Z,19.33
2023-02-22T18:02:04.121Z,22.87
2023-02-22T18:04:35.801Z,13.30
2023-02-22T18:07:04.756Z,12.60
2023-02-22T18:09:34.078Z,11.23
2023-02-22T18:12:02.272Z,16.10
2023-02-22T18:14:30.733Z,13.10
2023-02-22T18:16:59.788Z,13.80
2023-02-22T18:19:32.889Z,13.83
2023-02-22T18:22:03.066Z,14.43
2023-02-22T18:24:34.825Z,13.33
2023-02-22T18:27:05.928Z,13.87
2023-02-22T18:29:34.390Z,14.60
2023-02-22T18:32:02.617Z,14.17
2023-02-22T18:34:33.095Z,14.47
2023-02-22T18:37:01.960Z,18.90
2023-02-22T18:39:33.819Z,43.33
2023-02-22T18:42:02.048Z,15.10
2023-02-22T18:44:33.509Z,13.07
2023-02-22T18:47:01.746Z,13.07
2023-02-22T18:49:31.312Z,11.23
2023-02-22T18:51:59.638Z,16.10
2023-02-22T18:54:27.844Z,13.30
2023-02-22T18:56:56.004Z,15.23
2023-02-22T18:59:24.127Z,12.97
2023-02-22T19:01:54.029Z,15.47
2023-02-22T19:04:22.230Z,14.83
2023-02-22T19:06:52.035Z,13.47
2023-02-22T19:09:20.579Z,12.07
2023-02-22T19:11:51.507Z,13.10
2023-02-22T19:14:22.223Z,13.90
2023-02-22T19:16:50.976Z,14.93
2023-02-22T19:19:20.953Z,13.97
2023-02-22T19:21:52.006Z,13.97
2023-02-22T19:24:21.871Z,16.90
2023-02-22T19:26:50.610Z,18.10
2023-02-22T19:29:22.101Z,17.30
2023-02-22T19:31:51.478Z,17.57
2023-02-22T19:34:22.031Z,20.07
2023-02-22T19:36:50.433Z,14.93
2023-02-22T19:41:52.557Z,18.37
2023-02-22T19:44:20.866Z,16.70
2023-02-22T19:46:49.011Z,17.13
2023-02-22T19:49:17.637Z,50.27
2023-02-22T19:51:46.202Z,28.13
2023-02-22T19:54:17.557Z,24.47
2023-02-22T19:56:50.874Z,23.43
2023-02-22T19:59:23.120Z,20.00
2023-02-22T20:01:54.058Z,20.27
2023-02-22T20:04:22.701Z,22.83
2023-02-22T20:06:54.686Z,24.97
2023-02-22T20:09:29.870Z,26.83
2023-02-22T20:12:01.486Z,24.07
2023-02-22T20:14:30.793Z,23.73
2023-02-22T20:16:59.837Z,22.23
2023-02-22T20:19:29.086Z,23.77
2023-02-22T20:21:57.654Z,19.57
2023-02-22T20:24:27.868Z,14.10
2023-02-22T20:26:58.619Z,16.70
2023-02-22T20:29:30.507Z,12.27
2023-02-22T20:31:59.633Z,8.27
2023-02-22T20:34:31.406Z,7.53
2023-02-22T20:37:00.084Z,5.47
2023-02-22T20:39:28.289Z,5.03
2023-02-22T20:41:56.546Z,6.07
2023-02-22T20:44:30.243Z,5.93
2023-02-22T20:47:01.250Z,8.53
2023-02-22T20:49:29.656Z,7.87
2023-02-22T20:51:57.842Z,11.00
2023-02-22T20:54:27.855Z,9.97
2023-02-22T20:56:56.036Z,42.47
2023-02-22T20:59:24.197Z,12.60
2023-02-22T21:01:55.853Z,10.13
2023-02-22T21:04:24.960Z,10.87
2023-02-22T21:06:53.243Z,8.80
2023-02-22T21:09:24.858Z,9.40
2023-02-22T21:11:53.079Z,7.80
2023-02-22T21:14:24.861Z,7.50
2023-02-22T21:16:54.452Z,9.20
2023-02-22T21:19:26.437Z,7.03
2023-02-22T21:21:59.778Z,7.23
2023-02-22T21:24:30.244Z,8.03
2023-02-22T21:26:59.281Z,6.50
2023-02-22T21:29:28.157Z,6.07
2023-02-22T21:31:58.120Z,6.70
2023-02-22T21:34:26.884Z,8.03
2023-02-22T21:36:55.077Z,8.03
2023-02-22T21:39:28.878Z,8.80
2023-02-22T21:42:00.539Z,8.60
2023-02-22T21:44:29.339Z,8.53
2023-02-22T21:46:59.876Z,9.97
2023-02-22T21:49:31.613Z,9.97
2023-02-22T21:52:02.519Z,8.87
2023-02-22T21:54:30.782Z,10.03
2023-02-22T21:56:59.814Z,7.50
2023-02-22T21:59:32.351Z,20.53
2023-02-22T22:02:02.595Z,7.63
2023-02-22T22:04:33.919Z,9.43
2023-02-22T22:07:03.943Z,8.77
2023-02-22T22:09:40.572Z,6.53
2023-02-22T22:12:11.669Z,5.63
2023-02-22T22:14:40.872Z,6.20
2023-02-22T22:17:12.515Z,5.87
2023-02-22T22:19:41.888Z,13.70
2023-02-22T22:22:10.202Z,12.10
2023-02-22T22:24:41.883Z,5.97
2023-02-22T22:27:12.845Z,8.13
2023-02-22T22:29:45.904Z,6.73
2023-02-22T22:32:16.976Z,6.43
2023-02-22T22:34:45.877Z,9.47
2023-02-22T22:37:14.023Z,5.20
2023-02-22T22:39:44.458Z,4.93
2023-02-22T22:42:13.437Z,5.43
2023-02-22T22:44:42.919Z,8.57
2023-02-22T22:47:13.912Z,5.03
2023-02-22T22:49:43.732Z,5.00
2023-02-22T22:52:13.946Z,5.07
2023-02-22T22:54:43.137Z,6.87
2023-02-22T22:57:12.887Z,5.17
2023-02-22T22:59:41.021Z,5.00
2023-02-22T23:02:11.290Z,7.50
2023-02-22T23:04:40.324Z,5.60
2023-02-22T23:07:09.903Z,5.87
2023-02-22T23:09:39.551Z,6.73
2023-02-22T23:12:09.841Z,6.03
2023-02-22T23:14:44.011Z,6.37
2023-02-22T23:17:16.417Z,6.30
2023-02-22T23:19:46.875Z,6.13
2023-02-22T23:22:24.402Z,7.67
2023-02-22T23:24:53.025Z,5.60
2023-02-22T23:27:24.386Z,6.63
2023-02-22T23:29:52.633Z,5.57
2023-02-22T23:32:21.341Z,5.97
2023-02-22T23:34:50.506Z,6.03
2023-02-22T23:37:21.922Z,5.70
2023-02-22T23:39:51.235Z,5.37
2023-02-22T23:42:19.601Z,5.60
2023-02-22T23:44:49.912Z,6.03
2023-02-22T23:47:20.378Z,5.83
2023-02-22T23:49:49.626Z,6.57
2023-02-22T23:52:24.407Z,5.50
2023-02-22T23:54:55.908Z,6.37
2023-02-22T23:57:25.997Z,5.83
2023-02-22T23:59:56.912Z,5.70
